Decoded Metar for PAWS (WASILLA in AK, USA) (IATA:IYS) | Meteo·Mobile Aviation Weather
aviador You're here:

PAWS Decoded Metar

WASILLA in AK, USA
Report Time2018-11-19 08:56:00
UTC Time2018-11-19 10:04:50
Flight Rules Old
WindCalm
Visibility9999 m
Phenomena:N/A
Clouds:Overcast 090 Hf
Ceiling9,000 ft
Temp01°C (ISA -13)
Dew Point01°C (100% RH)
AAT-0.8°C
QNH996 hPa
Density Alt-594 ft
Elevation351 ft
Report Wrong Elevation
Raw Report
PAWS 190856Z AUTO 00000KT 10SM OVC090 01/01 A2942 RMK AO2 SLP978
T00110006 400610006 58001 FZRANO=

Extra information for PAWS:More info

Metar Taf Metar & Taf Last 4 Metars F.Rules Stats Wind Profile Meteogram Temp Stats Airport Information Weather charts Add Link Nearby VenuesMetar ALERT Operation Metar Decoded Social comments

AIRNAV info for PAWS